sensor_id;sensor_type;location;lat;lon;timestamp;P1;durP1;ratioP1;P2;durP2;ratioP2
2486;SDS011;1254;49.144;8.212;2023-05-02T00:01:59;8.35;;;6.95;;
2486;SDS011;1254;49.144;8.212;2023-05-02T00:04:29;8.95;;;6.82;;
2486;SDS011;1254;49.144;8.212;2023-05-02T00:06:57;13.70;;;11.93;;
2486;SDS011;1254;49.144;8.212;2023-05-02T00:09:26;18.88;;;13.50;;
2486;SDS011;1254;49.144;8.212;2023-05-02T00:11:54;12.20;;;10.90;;
2486;SDS011;1254;49.144;8.212;2023-05-02T00:14:23;8.38;;;7.35;;
2486;SDS011;1254;49.144;8.212;2023-05-02T00:16:51;6.80;;;6.05;;
2486;SDS011;1254;49.144;8.212;2023-05-02T00:19:19;9.32;;;7.82;;
2486;SDS011;1254;49.144;8.212;2023-05-02T00:21:49;11.27;;;8.00;;
2486;SDS011;1254;49.144;8.212;2023-05-02T00:24:17;8.38;;;7.20;;
2486;SDS011;1254;49.144;8.212;2023-05-02T00:26:46;8.43;;;7.82;;
2486;SDS011;1254;49.144;8.212;2023-05-02T00:29:15;8.77;;;8.07;;
2486;SDS011;1254;49.144;8.212;2023-05-02T00:31:43;7.25;;;6.60;;
2486;SDS011;1254;49.144;8.212;2023-05-02T00:34:11;8.63;;;7.05;;
2486;SDS011;1254;49.144;8.212;2023-05-02T00:36:40;6.50;;;6.00;;
2486;SDS011;1254;49.144;8.212;2023-05-02T00:39:09;7.07;;;6.57;;
2486;SDS011;1254;49.144;8.212;2023-05-02T00:41:37;6.15;;;5.75;;
2486;SDS011;1254;49.144;8.212;2023-05-02T00:44:06;6.53;;;6.03;;
2486;SDS011;1254;49.144;8.212;2023-05-02T00:46:34;7.03;;;6.32;;
2486;SDS011;1254;49.144;8.212;2023-05-02T00:49:02;6.72;;;6.13;;
2486;SDS011;1254;49.144;8.212;2023-05-02T00:51:31;7.00;;;6.28;;
2486;SDS011;1254;49.144;8.212;2023-05-02T00:54:00;6.45;;;5.95;;
2486;SDS011;1254;49.144;8.212;2023-05-02T00:56:30;6.90;;;6.38;;
2486;SDS011;1254;49.144;8.212;2023-05-02T00:58:58;8.18;;;6.10;;
2486;SDS011;1254;49.144;8.212;2023-05-02T01:01:28;6.80;;;6.30;;
2486;SDS011;1254;49.144;8.212;2023-05-02T01:04:03;6.05;;;5.40;;
2486;SDS011;1254;49.144;8.212;2023-05-02T01:06:35;6.65;;;6.05;;
2486;SDS011;1254;49.144;8.212;2023-05-02T01:09:11;6.70;;;6.20;;
2486;SDS011;1254;49.144;8.212;2023-05-02T01:11:46;6.45;;;5.95;;
2486;SDS011;1254;49.144;8.212;2023-05-02T01:14:16;7.53;;;5.70;;
2486;SDS011;1254;49.144;8.212;2023-05-02T01:16:45;5.60;;;5.10;;
2486;SDS011;1254;49.144;8.212;2023-05-02T01:19:18;9.95;;;6.05;;
2486;SDS011;1254;49.144;8.212;2023-05-02T01:21:48;5.70;;;5.18;;
2486;SDS011;1254;49.144;8.212;2023-05-02T01:24:18;7.80;;;5.80;;
2486;SDS011;1254;49.144;8.212;2023-05-02T01:26:51;5.55;;;5.15;;
2486;SDS011;1254;49.144;8.212;2023-05-02T01:29:24;5.45;;;5.05;;
2486;SDS011;1254;49.144;8.212;2023-05-02T01:31:54;5.57;;;5.18;;
2486;SDS011;1254;49.144;8.212;2023-05-02T01:34:23;5.07;;;4.68;;
2486;SDS011;1254;49.144;8.212;2023-05-02T01:36:52;5.03;;;4.63;;
2486;SDS011;1254;49.144;8.212;2023-05-02T01:39:21;5.88;;;5.47;;
2486;SDS011;1254;49.144;8.212;2023-05-02T01:41:52;5.45;;;4.70;;
2486;SDS011;1254;49.144;8.212;2023-05-02T01:44:21;5.13;;;4.70;;
2486;SDS011;1254;49.144;8.212;2023-05-02T01:46:52;5.82;;;5.22;;
2486;SDS011;1254;49.144;8.212;2023-05-02T01:49:22;4.95;;;4.55;;
2486;SDS011;1254;49.144;8.212;2023-05-02T01:51:50;5.07;;;4.75;;
2486;SDS011;1254;49.144;8.212;2023-05-02T01:54:20;5.55;;;5.10;;
2486;SDS011;1254;49.144;8.212;2023-05-02T01:56:50;8.05;;;5.10;;
2486;SDS011;1254;49.144;8.212;2023-05-02T01:59:20;6.90;;;5.90;;
2486;SDS011;1254;49.144;8.212;2023-05-02T02:01:50;5.97;;;5.47;;
2486;SDS011;1254;49.144;8.212;2023-05-02T02:04:19;6.38;;;5.78;;
2486;SDS011;1254;49.144;8.212;2023-05-02T02:06:49;5.85;;;5.00;;
2486;SDS011;1254;49.144;8.212;2023-05-02T02:09:19;6.65;;;5.95;;
2486;SDS011;1254;49.144;8.212;2023-05-02T02:11:49;6.97;;;6.28;;
2486;SDS011;1254;49.144;8.212;2023-05-02T02:14:20;6.57;;;5.90;;
2486;SDS011;1254;49.144;8.212;2023-05-02T02:16:49;5.93;;;5.43;;
2486;SDS011;1254;49.144;8.212;2023-05-02T02:19:17;6.63;;;6.10;;
2486;SDS011;1254;49.144;8.212;2023-05-02T02:21:47;7.13;;;6.43;;
2486;SDS011;1254;49.144;8.212;2023-05-02T02:24:17;6.30;;;5.70;;
2486;SDS011;1254;49.144;8.212;2023-05-02T02:26:47;7.32;;;6.72;;
2486;SDS011;1254;49.144;8.212;2023-05-02T02:29:16;7.15;;;6.45;;
2486;SDS011;1254;49.144;8.212;2023-05-02T02:31:45;6.80;;;6.30;;
2486;SDS011;1254;49.144;8.212;2023-05-02T02:34:14;11.18;;;6.25;;
2486;SDS011;1254;49.144;8.212;2023-05-02T02:36:43;6.78;;;6.28;;
2486;SDS011;1254;49.144;8.212;2023-05-02T02:39:17;6.32;;;5.78;;
2486;SDS011;1254;49.144;8.212;2023-05-02T02:41:54;6.00;;;5.50;;
2486;SDS011;1254;49.144;8.212;2023-05-02T02:44:32;7.13;;;5.60;;
2486;SDS011;1254;49.144;8.212;2023-05-02T02:47:05;6.95;;;6.05;;
2486;SDS011;1254;49.144;8.212;2023-05-02T02:49:37;5.95;;;5.53;;
2486;SDS011;1254;49.144;8.212;2023-05-02T02:52:13;7.35;;;5.47;;
2486;SDS011;1254;49.144;8.212;2023-05-02T02:54:45;6.10;;;5.60;;
2486;SDS011;1254;49.144;8.212;2023-05-02T02:57:15;7.20;;;6.60;;
2486;SDS011;1254;49.144;8.212;2023-05-02T02:59:49;7.20;;;6.50;;
2486;SDS011;1254;49.144;8.212;2023-05-02T03:02:18;6.70;;;6.10;;
2486;SDS011;1254;49.144;8.212;2023-05-02T03:04:49;6.15;;;5.70;;
2486;SDS011;1254;49.144;8.212;2023-05-02T03:07:18;7.35;;;6.65;;
2486;SDS011;1254;49.144;8.212;2023-05-02T03:09:49;11.25;;;6.07;;
2486;SDS011;1254;49.144;8.212;2023-05-02T03:12:21;6.78;;;6.25;;
2486;SDS011;1254;49.144;8.212;2023-05-02T03:14:50;5.97;;;5.57;;
2486;SDS011;1254;49.144;8.212;2023-05-02T03:17:33;6.57;;;5.65;;
2486;SDS011;1254;49.144;8.212;2023-05-02T03:20:01;9.40;;;6.57;;
2486;SDS011;1254;49.144;8.212;2023-05-02T03:22:30;6.15;;;5.55;;
2486;SDS011;1254;49.144;8.212;2023-05-02T03:25:01;6.45;;;5.78;;
2486;SDS011;1254;49.144;8.212;2023-05-02T03:27:29;6.75;;;6.05;;
2486;SDS011;1254;49.144;8.212;2023-05-02T03:29:59;5.93;;;5.53;;
2486;SDS011;1254;49.144;8.212;2023-05-02T03:32:28;10.48;;;6.35;;
2486;SDS011;1254;49.144;8.212;2023-05-02T03:34:57;7.32;;;6.72;;
2486;SDS011;1254;49.144;8.212;2023-05-02T03:37:32;6.47;;;5.88;;
2486;SDS011;1254;49.144;8.212;2023-05-02T03:40:02;7.35;;;6.30;;
2486;SDS011;1254;49.144;8.212;2023-05-02T03:42:30;8.75;;;6.50;;
2486;SDS011;1254;49.144;8.212;2023-05-02T03:44:58;6.80;;;6.20;;
2486;SDS011;1254;49.144;8.212;2023-05-02T03:47:27;7.65;;;7.05;;
2486;SDS011;1254;49.144;8.212;2023-05-02T03:49:56;7.07;;;6.47;;
2486;SDS011;1254;49.144;8.212;2023-05-02T03:52:24;7.05;;;6.55;;
2486;SDS011;1254;49.144;8.212;2023-05-02T03:54:54;6.90;;;6.40;;
2486;SDS011;1254;49.144;8.212;2023-05-02T03:57:24;10.55;;;7.13;;
2486;SDS011;1254;49.144;8.212;2023-05-02T03:59:52;7.57;;;6.82;;
2486;SDS011;1254;49.144;8.212;2023-05-02T04:02:26;8.13;;;6.60;;
2486;SDS011;1254;49.144;8.212;2023-05-02T04:04:54;7.50;;;6.75;;
2486;SDS011;1254;49.144;8.212;2023-05-02T04:07:23;8.05;;;7.35;;
2486;SDS011;1254;49.144;8.212;2023-05-02T04:10:04;8.40;;;7.60;;
2486;SDS011;1254;49.144;8.212;2023-05-02T04:12:40;7.32;;;6.82;;
2486;SDS011;1254;49.144;8.212;2023-05-02T04:15:09;6.93;;;6.43;;
2486;SDS011;1254;49.144;8.212;2023-05-02T04:17:38;7.88;;;7.18;;
2486;SDS011;1254;49.144;8.212;2023-05-02T04:20:09;7.15;;;6.55;;
2486;SDS011;1254;49.144;8.212;2023-05-02T04:22:41;7.28;;;6.70;;
2486;SDS011;1254;49.144;8.212;2023-05-02T04:25:11;8.68;;;6.68;;
2486;SDS011;1254;49.144;8.212;2023-05-02T04:27:42;6.82;;;6.30;;
2486;SDS011;1254;49.144;8.212;2023-05-02T04:30:14;7.78;;;6.53;;
2486;SDS011;1254;49.144;8.212;2023-05-02T04:32:48;6.97;;;6.38;;
2486;SDS011;1254;49.144;8.212;2023-05-02T04:35:16;7.80;;;7.10;;
2486;SDS011;1254;49.144;8.212;2023-05-02T04:37:45;8.15;;;6.40;;
2486;SDS011;1254;49.144;8.212;2023-05-02T04:40:14;9.50;;;8.68;;
2486;SDS011;1254;49.144;8.212;2023-05-02T04:42:47;9.73;;;8.68;;
2486;SDS011;1254;49.144;8.212;2023-05-02T04:45:23;9.43;;;8.63;;
2486;SDS011;1254;49.144;8.212;2023-05-02T04:47:52;10.55;;;8.77;;
2486;SDS011;1254;49.144;8.212;2023-05-02T04:50:20;9.50;;;7.70;;
2486;SDS011;1254;49.144;8.212;2023-05-02T04:52:48;7.70;;;7.07;;
2486;SDS011;1254;49.144;8.212;2023-05-02T04:55:17;7.53;;;7.03;;
2486;SDS011;1254;49.144;8.212;2023-05-02T04:57:46;7.93;;;7.28;;
2486;SDS011;1254;49.144;8.212;2023-05-02T05:00:16;7.10;;;6.57;;
2486;SDS011;1254;49.144;8.212;2023-05-02T05:02:45;8.48;;;7.68;;
2486;SDS011;1254;49.144;8.212;2023-05-02T05:05:14;7.70;;;7.00;;
2486;SDS011;1254;49.144;8.212;2023-05-02T05:07:42;7.20;;;6.60;;
2486;SDS011;1254;49.144;8.212;2023-05-02T05:10:11;8.30;;;7.53;;
2486;SDS011;1254;49.144;8.212;2023-05-02T05:12:43;7.13;;;6.63;;
2486;SDS011;1254;49.144;8.212;2023-05-02T05:15:14;7.68;;;6.70;;
2486;SDS011;1254;49.144;8.212;2023-05-02T05:17:48;7.20;;;6.60;;
2486;SDS011;1254;49.144;8.212;2023-05-02T05:20:17;10.07;;;7.88;;
2486;SDS011;1254;49.144;8.212;2023-05-02T05:22:46;7.72;;;7.03;;
2486;SDS011;1254;49.144;8.212;2023-05-02T05:25:16;8.98;;;7.70;;
2486;SDS011;1254;49.144;8.212;2023-05-02T05:27:46;8.70;;;8.00;;
2486;SDS011;1254;49.144;8.212;2023-05-02T05:30:19;7.82;;;7.10;;
2486;SDS011;1254;49.144;8.212;2023-05-02T05:32:47;8.77;;;7.70;;
2486;SDS011;1254;49.144;8.212;2023-05-02T05:35:16;7.63;;;6.53;;
2486;SDS011;1254;49.144;8.212;2023-05-02T05:37:44;8.55;;;7.85;;
2486;SDS011;1254;49.144;8.212;2023-05-02T05:40:15;8.70;;;8.00;;
2486;SDS011;1254;49.144;8.212;2023-05-02T05:42:47;8.73;;;8.00;;
2486;SDS011;1254;49.144;8.212;2023-05-02T05:45:23;12.32;;;9.32;;
2486;SDS011;1254;49.144;8.212;2023-05-02T05:47:52;10.52;;;9.63;;
2486;SDS011;1254;49.144;8.212;2023-05-02T05:50:22;11.15;;;9.95;;
2486;SDS011;1254;49.144;8.212;2023-05-02T05:52:51;11.20;;;10.10;;
2486;SDS011;1254;49.144;8.212;2023-05-02T05:55:19;11.75;;;10.48;;
2486;SDS011;1254;49.144;8.212;2023-05-02T05:57:48;11.70;;;9.27;;
2486;SDS011;1254;49.144;8.212;2023-05-02T06:00:16;11.00;;;9.70;;
2486;SDS011;1254;49.144;8.212;2023-05-02T06:02:50;10.68;;;9.68;;
2486;SDS011;1254;49.144;8.212;2023-05-02T06:05:25;11.60;;;10.48;;
2486;SDS011;1254;49.144;8.212;2023-05-02T06:07:54;9.63;;;8.82;;
2486;SDS011;1254;49.144;8.212;2023-05-02T06:10:22;10.60;;;9.65;;
2486;SDS011;1254;49.144;8.212;2023-05-02T06:12:51;12.10;;;11.00;;
2486;SDS011;1254;49.144;8.212;2023-05-02T06:15:24;14.10;;;12.70;;
2486;SDS011;1254;49.144;8.212;2023-05-02T06:17:53;11.77;;;10.68;;
2486;SDS011;1254;49.144;8.212;2023-05-02T06:20:22;11.00;;;10.00;;
2486;SDS011;1254;49.144;8.212;2023-05-02T06:22:50;13.68;;;12.32;;
2486;SDS011;1254;49.144;8.212;2023-05-02T06:25:18;13.90;;;11.52;;
2486;SDS011;1254;49.144;8.212;2023-05-02T06:27:46;13.18;;;11.07;;
2486;SDS011;1254;49.144;8.212;2023-05-02T06:30:15;18.27;;;14.02;;
2486;SDS011;1254;49.144;8.212;2023-05-02T06:32:43;13.02;;;11.30;;
2486;SDS011;1254;49.144;8.212;2023-05-02T06:35:12;14.32;;;11.38;;
2486;SDS011;1254;49.144;8.212;2023-05-02T06:37:41;12.07;;;10.88;;
2486;SDS011;1254;49.144;8.212;2023-05-02T06:40:09;12.20;;;11.00;;
2486;SDS011;1254;49.144;8.212;2023-05-02T06:42:38;12.93;;;11.63;;
2486;SDS011;1254;49.144;8.212;2023-05-02T06:45:06;16.90;;;13.20;;
2486;SDS011;1254;49.144;8.212;2023-05-02T06:47:35;16.73;;;14.60;;
2486;SDS011;1254;49.144;8.212;2023-05-02T06:50:03;21.13;;;16.27;;
2486;SDS011;1254;49.144;8.212;2023-05-02T06:52:33;23.80;;;19.87;;
2486;SDS011;1254;49.144;8.212;2023-05-02T06:55:01;31.00;;;23.93;;
2486;SDS011;1254;49.144;8.212;2023-05-02T06:57:29;34.53;;;23.93;;
2486;SDS011;1254;49.144;8.212;2023-05-02T06:59:58;32.00;;;26.00;;
2486;SDS011;1254;49.144;8.212;2023-05-02T07:02:26;34.50;;;27.00;;
2486;SDS011;1254;49.144;8.212;2023-05-02T07:04:54;33.83;;;25.17;;
2486;SDS011;1254;49.144;8.212;2023-05-02T07:07:22;36.80;;;27.27;;
2486;SDS011;1254;49.144;8.212;2023-05-02T07:09:52;37.70;;;29.60;;
2486;SDS011;1254;49.144;8.212;2023-05-02T07:12:20;38.50;;;30.70;;
2486;SDS011;1254;49.144;8.212;2023-05-02T07:14:48;40.90;;;29.97;;
2486;SDS011;1254;49.144;8.212;2023-05-02T07:17:17;39.93;;;29.37;;
2486;SDS011;1254;49.144;8.212;2023-05-02T07:19:45;38.60;;;29.90;;
2486;SDS011;1254;49.144;8.212;2023-05-02T07:22:13;40.47;;;30.70;;
2486;SDS011;1254;49.144;8.212;2023-05-02T07:24:41;39.70;;;31.20;;
2486;SDS011;1254;49.144;8.212;2023-05-02T07:27:11;42.90;;;30.60;;
2486;SDS011;1254;49.144;8.212;2023-05-02T07:29:40;35.97;;;28.63;;
2486;SDS011;1254;49.144;8.212;2023-05-02T07:32:08;39.20;;;30.10;;
2486;SDS011;1254;49.144;8.212;2023-05-02T07:34:36;36.90;;;28.50;;
2486;SDS011;1254;49.144;8.212;2023-05-02T07:37:05;37.70;;;29.57;;
2486;SDS011;1254;49.144;8.212;2023-05-02T07:39:33;37.50;;;31.10;;
2486;SDS011;1254;49.144;8.212;2023-05-02T07:42:01;40.00;;;31.83;;
2486;SDS011;1254;49.144;8.212;2023-05-02T07:44:31;38.47;;;30.97;;
2486;SDS011;1254;49.144;8.212;2023-05-02T07:47:00;38.57;;;31.00;;
2486;SDS011;1254;49.144;8.212;2023-05-02T07:49:28;42.10;;;31.07;;
2486;SDS011;1254;49.144;8.212;2023-05-02T07:51:57;39.90;;;30.50;;
2486;SDS011;1254;49.144;8.212;2023-05-02T07:54:25;38.20;;;29.53;;
2486;SDS011;1254;49.144;8.212;2023-05-02T07:56:53;37.80;;;31.30;;
2486;SDS011;1254;49.144;8.212;2023-05-02T07:59:23;38.87;;;30.27;;
2486;SDS011;1254;49.144;8.212;2023-05-02T08:01:52;37.83;;;30.10;;
2486;SDS011;1254;49.144;8.212;2023-05-02T08:04:21;37.17;;;29.80;;
2486;SDS011;1254;49.144;8.212;2023-05-02T08:06:49;40.20;;;31.30;;
2486;SDS011;1254;49.144;8.212;2023-05-02T08:09:17;41.70;;;31.10;;
2486;SDS011;1254;49.144;8.212;2023-05-02T08:11:45;40.20;;;30.90;;
2486;SDS011;1254;49.144;8.212;2023-05-02T08:14:14;38.63;;;30.37;;
2486;SDS011;1254;49.144;8.212;2023-05-02T08:16:42;38.63;;;30.57;;
2486;SDS011;1254;49.144;8.212;2023-05-02T08:19:12;43.67;;;33.20;;
2486;SDS011;1254;49.144;8.212;2023-05-02T08:21:40;37.93;;;30.87;;
2486;SDS011;1254;49.144;8.212;2023-05-02T08:24:09;41.80;;;32.70;;
2486;SDS011;1254;49.144;8.212;2023-05-02T08:26:37;37.63;;;31.93;;
2486;SDS011;1254;49.144;8.212;2023-05-02T08:29:05;41.80;;;30.97;;
2486;SDS011;1254;49.144;8.212;2023-05-02T08:31:36;36.80;;;28.90;;
2486;SDS011;1254;49.144;8.212;2023-05-02T08:34:04;41.53;;;31.83;;
2486;SDS011;1254;49.144;8.212;2023-05-02T08:36:34;35.90;;;30.13;;
2486;SDS011;1254;49.144;8.212;2023-05-02T08:39:03;38.90;;;30.43;;
2486;SDS011;1254;49.144;8.212;2023-05-02T08:41:33;36.20;;;29.87;;
2486;SDS011;1254;49.144;8.212;2023-05-02T08:44:01;37.83;;;31.33;;
2486;SDS011;1254;49.144;8.212;2023-05-02T08:46:30;34.93;;;29.20;;
2486;SDS011;1254;49.144;8.212;2023-05-02T08:48:58;38.77;;;31.07;;
2486;SDS011;1254;49.144;8.212;2023-05-02T08:51:27;30.40;;;24.63;;
2486;SDS011;1254;49.144;8.212;2023-05-02T08:53:58;28.63;;;23.97;;
2486;SDS011;1254;49.144;8.212;2023-05-02T08:56:29;27.37;;;23.80;;
2486;SDS011;1254;49.144;8.212;2023-05-02T08:58:57;27.80;;;24.90;;
2486;SDS011;1254;49.144;8.212;2023-05-02T09:01:27;24.60;;;21.60;;
2486;SDS011;1254;49.144;8.212;2023-05-02T09:03:55;28.90;;;25.50;;
2486;SDS011;1254;49.144;8.212;2023-05-02T09:06:25;28.83;;;25.73;;
2486;SDS011;1254;49.144;8.212;2023-05-02T09:08:54;32.77;;;23.80;;
2486;SDS011;1254;49.144;8.212;2023-05-02T09:11:23;32.80;;;25.27;;
2486;SDS011;1254;49.144;8.212;2023-05-02T09:13:51;29.03;;;24.27;;
2486;SDS011;1254;49.144;8.212;2023-05-02T09:16:21;29.60;;;24.70;;
2486;SDS011;1254;49.144;8.212;2023-05-02T09:18:50;27.30;;;22.83;;
2486;SDS011;1254;49.144;8.212;2023-05-02T09:21:19;23.30;;;20.60;;
2486;SDS011;1254;49.144;8.212;2023-05-02T09:23:48;24.53;;;21.90;;
2486;SDS011;1254;49.144;8.212;2023-05-02T09:26:18;21.97;;;19.67;;
2486;SDS011;1254;49.144;8.212;2023-05-02T09:28:48;30.73;;;22.03;;
2486;SDS011;1254;49.144;8.212;2023-05-02T09:31:17;22.70;;;19.57;;
2486;SDS011;1254;49.144;8.212;2023-05-02T09:33:46;22.63;;;19.10;;
2486;SDS011;1254;49.144;8.212;2023-05-02T09:36:15;25.60;;;20.43;;
2486;SDS011;1254;49.144;8.212;2023-05-02T09:38:45;22.67;;;20.33;;
2486;SDS011;1254;49.144;8.212;2023-05-02T09:41:14;19.77;;;17.63;;
2486;SDS011;1254;49.144;8.212;2023-05-02T09:43:54;21.80;;;19.70;;
2486;SDS011;1254;49.144;8.212;2023-05-02T09:46:23;20.58;;;18.35;;
2486;SDS011;1254;49.144;8.212;2023-05-02T09:48:52;22.80;;;20.00;;
2486;SDS011;1254;49.144;8.212;2023-05-02T09:51:21;21.77;;;19.40;;
2486;SDS011;1254;49.144;8.212;2023-05-02T09:53:49;20.73;;;18.63;;
2486;SDS011;1254;49.144;8.212;2023-05-02T09:56:18;20.07;;;18.07;;
2486;SDS011;1254;49.144;8.212;2023-05-02T09:58:46;22.17;;;20.07;;
2486;SDS011;1254;49.144;8.212;2023-05-02T10:01:16;22.27;;;19.97;;
2486;SDS011;1254;49.144;8.212;2023-05-02T10:03:45;26.10;;;23.37;;
2486;SDS011;1254;49.144;8.212;2023-05-02T10:06:13;22.50;;;20.40;;
2486;SDS011;1254;49.144;8.212;2023-05-02T10:08:42;23.13;;;21.00;;
2486;SDS011;1254;49.144;8.212;2023-05-02T10:11:12;22.37;;;20.27;;
2486;SDS011;1254;49.144;8.212;2023-05-02T10:13:41;24.03;;;21.53;;
2486;SDS011;1254;49.144;8.212;2023-05-02T10:16:11;25.27;;;22.87;;
2486;SDS011;1254;49.144;8.212;2023-05-02T10:18:41;25.23;;;22.47;;
2486;SDS011;1254;49.144;8.212;2023-05-02T10:21:13;25.77;;;20.87;;
2486;SDS011;1254;49.144;8.212;2023-05-02T10:23:43;23.57;;;20.50;;
2486;SDS011;1254;49.144;8.212;2023-05-02T10:26:13;20.63;;;18.63;;
2486;SDS011;1254;49.144;8.212;2023-05-02T10:28:55;24.23;;;18.60;;
2486;SDS011;1254;49.144;8.212;2023-05-02T10:31:23;22.07;;;19.87;;
2486;SDS011;1254;49.144;8.212;2023-05-02T10:33:54;21.13;;;18.43;;
2486;SDS011;1254;49.144;8.212;2023-05-02T10:36:22;20.57;;;18.37;;
2486;SDS011;1254;49.144;8.212;2023-05-02T10:38:52;20.70;;;18.70;;
2486;SDS011;1254;49.144;8.212;2023-05-02T10:41:20;20.47;;;18.50;;
2486;SDS011;1254;49.144;8.212;2023-05-02T10:43:49;18.93;;;16.80;;
2486;SDS011;1254;49.144;8.212;2023-05-02T10:46:31;20.00;;;15.83;;
2486;SDS011;1254;49.144;8.212;2023-05-02T10:49:01;16.60;;;15.00;;
2486;SDS011;1254;49.144;8.212;2023-05-02T10:51:29;18.50;;;16.60;;
2486;SDS011;1254;49.144;8.212;2023-05-02T10:59:35;17.50;;;15.70;;
2486;SDS011;1254;49.144;8.212;2023-05-02T11:02:03;16.30;;;14.57;;
2486;SDS011;1254;49.144;8.212;2023-05-02T11:07:20;13.90;;;12.60;;
2486;SDS011;1254;49.144;8.212;2023-05-02T11:09:48;15.87;;;13.53;;
2486;SDS011;1254;49.144;8.212;2023-05-02T11:15:00;15.10;;;13.57;;
2486;SDS011;1254;49.144;8.212;2023-05-02T11:17:31;14.33;;;13.03;;
2486;SDS011;1254;49.144;8.212;2023-05-02T11:20:19;13.73;;;12.43;;
2486;SDS011;1254;49.144;8.212;2023-05-02T11:22:49;13.73;;;12.67;;
2486;SDS011;1254;49.144;8.212;2023-05-02T11:25:31;14.40;;;13.20;;
2486;SDS011;1254;49.144;8.212;2023-05-02T11:27:59;13.87;;;12.77;;
2486;SDS011;1254;49.144;8.212;2023-05-02T11:30:43;13.80;;;12.60;;
2486;SDS011;1254;49.144;8.212;2023-05-02T11:33:14;14.30;;;13.10;;
2486;SDS011;1254;49.144;8.212;2023-05-02T11:35:43;14.57;;;13.40;;
2486;SDS011;1254;49.144;8.212;2023-05-02T11:38:13;15.37;;;13.47;;
2486;SDS011;1254;49.144;8.212;2023-05-02T11:40:51;15.50;;;14.20;;
2486;SDS011;1254;49.144;8.212;2023-05-02T11:43:20;15.87;;;14.67;;
2486;SDS011;1254;49.144;8.212;2023-05-02T11:45:50;15.70;;;14.40;;
2486;SDS011;1254;49.144;8.212;2023-05-02T11:48:18;14.23;;;13.33;;
2486;SDS011;1254;49.144;8.212;2023-05-02T11:50:47;15.03;;;14.03;;
2486;SDS011;1254;49.144;8.212;2023-05-02T11:53:17;15.73;;;14.63;;
2486;SDS011;1254;49.144;8.212;2023-05-02T11:55:48;16.77;;;15.67;;
2486;SDS011;1254;49.144;8.212;2023-05-02T11:58:17;14.43;;;13.43;;
2486;SDS011;1254;49.144;8.212;2023-05-02T12:00:45;16.17;;;14.97;;
2486;SDS011;1254;49.144;8.212;2023-05-02T12:03:20;16.50;;;15.37;;
2486;SDS011;1254;49.144;8.212;2023-05-02T12:05:49;15.43;;;14.37;;
2486;SDS011;1254;49.144;8.212;2023-05-02T12:08:19;16.20;;;14.90;;
2486;SDS011;1254;49.144;8.212;2023-05-02T12:10:49;15.80;;;14.80;;
2486;SDS011;1254;49.144;8.212;2023-05-02T12:13:19;17.90;;;16.60;;
2486;SDS011;1254;49.144;8.212;2023-05-02T12:15:49;17.13;;;15.83;;
2486;SDS011;1254;49.144;8.212;2023-05-02T12:18:18;15.77;;;14.77;;
2486;SDS011;1254;49.144;8.212;2023-05-02T12:20:49;16.63;;;15.00;;
2486;SDS011;1254;49.144;8.212;2023-05-02T12:23:20;15.50;;;14.30;;
2486;SDS011;1254;49.144;8.212;2023-05-02T12:25:48;14.77;;;13.77;;
2486;SDS011;1254;49.144;8.212;2023-05-02T12:28:17;14.90;;;13.80;;
2486;SDS011;1254;49.144;8.212;2023-05-02T12:30:46;15.07;;;13.77;;
2486;SDS011;1254;49.144;8.212;2023-05-02T12:33:14;14.57;;;13.60;;
2486;SDS011;1254;49.144;8.212;2023-05-02T12:35:43;13.70;;;12.90;;
2486;SDS011;1254;49.144;8.212;2023-05-02T12:38:13;14.70;;;13.70;;
2486;SDS011;1254;49.144;8.212;2023-05-02T12:40:47;14.57;;;13.57;;
2486;SDS011;1254;49.144;8.212;2023-05-02T12:43:15;14.60;;;13.70;;
2486;SDS011;1254;49.144;8.212;2023-05-02T12:45:44;15.23;;;14.20;;
2486;SDS011;1254;49.144;8.212;2023-05-02T12:48:17;15.23;;;14.23;;
2486;SDS011;1254;49.144;8.212;2023-05-02T12:50:45;15.47;;;14.60;;
2486;SDS011;1254;49.144;8.212;2023-05-02T12:53:14;14.80;;;13.60;;
2486;SDS011;1254;49.144;8.212;2023-05-02T12:55:42;15.77;;;14.57;;
2486;SDS011;1254;49.144;8.212;2023-05-02T12:58:13;15.20;;;14.10;;
2486;SDS011;1254;49.144;8.212;2023-05-02T13:00:42;14.63;;;13.63;;
2486;SDS011;1254;49.144;8.212;2023-05-02T13:03:10;14.93;;;14.03;;
2486;SDS011;1254;49.144;8.212;2023-05-02T13:05:38;15.43;;;14.20;;
2486;SDS011;1254;49.144;8.212;2023-05-02T13:08:06;14.27;;;13.47;;
2486;SDS011;1254;49.144;8.212;2023-05-02T13:10:35;14.07;;;13.27;;
2486;SDS011;1254;49.144;8.212;2023-05-02T13:13:03;17.10;;;13.87;;
2486;SDS011;1254;49.144;8.212;2023-05-02T13:15:32;13.80;;;12.90;;
2486;SDS011;1254;49.144;8.212;2023-05-02T13:18:01;13.27;;;12.47;;
2486;SDS011;1254;49.144;8.212;2023-05-02T13:20:29;13.00;;;12.40;;
2486;SDS011;1254;49.144;8.212;2023-05-02T13:22:58;13.07;;;12.17;;
2486;SDS011;1254;49.144;8.212;2023-05-02T13:25:26;12.17;;;11.60;;
2486;SDS011;1254;49.144;8.212;2023-05-02T13:27:54;12.30;;;11.40;;
2486;SDS011;1254;49.144;8.212;2023-05-02T13:30:22;12.47;;;11.80;;
2486;SDS011;1254;49.144;8.212;2023-05-02T13:32:52;12.03;;;11.43;;
2486;SDS011;1254;49.144;8.212;2023-05-02T13:35:20;13.30;;;12.30;;
2486;SDS011;1254;49.144;8.212;2023-05-02T13:37:48;13.10;;;12.40;;
2486;SDS011;1254;49.144;8.212;2023-05-02T13:40:17;11.93;;;11.33;;
2486;SDS011;1254;49.144;8.212;2023-05-02T13:42:46;12.67;;;12.03;;
2486;SDS011;1254;49.144;8.212;2023-05-02T13:45:14;12.40;;;11.80;;
2486;SDS011;1254;49.144;8.212;2023-05-02T13:47:42;11.10;;;10.50;;
2486;SDS011;1254;49.144;8.212;2023-05-02T13:50:12;11.80;;;11.10;;
2486;SDS011;1254;49.144;8.212;2023-05-02T13:52:40;11.93;;;11.33;;
2486;SDS011;1254;49.144;8.212;2023-05-02T13:55:08;11.87;;;11.27;;
2486;SDS011;1254;49.144;8.212;2023-05-02T13:57:37;11.50;;;11.00;;
2486;SDS011;1254;49.144;8.212;2023-05-02T14:00:06;11.90;;;11.30;;
2486;SDS011;1254;49.144;8.212;2023-05-02T14:02:35;12.10;;;11.50;;
2486;SDS011;1254;49.144;8.212;2023-05-02T14:05:03;11.70;;;11.20;;
2486;SDS011;1254;49.144;8.212;2023-05-02T14:07:33;12.57;;;11.97;;
2486;SDS011;1254;49.144;8.212;2023-05-02T14:10:02;13.10;;;12.40;;
2486;SDS011;1254;49.144;8.212;2023-05-02T14:12:30;12.53;;;11.93;;
2486;SDS011;1254;49.144;8.212;2023-05-02T14:14:58;13.37;;;12.30;;
2486;SDS011;1254;49.144;8.212;2023-05-02T14:17:26;10.97;;;10.47;;
2486;SDS011;1254;49.144;8.212;2023-05-02T14:19:56;11.70;;;11.20;;
2486;SDS011;1254;49.144;8.212;2023-05-02T14:22:24;12.17;;;11.37;;
2486;SDS011;1254;49.144;8.212;2023-05-02T14:24:54;11.87;;;11.37;;
2486;SDS011;1254;49.144;8.212;2023-05-02T14:27:22;11.80;;;11.00;;
2486;SDS011;1254;49.144;8.212;2023-05-02T14:29:51;11.43;;;10.83;;
2486;SDS011;1254;49.144;8.212;2023-05-02T14:32:21;11.60;;;11.00;;
2486;SDS011;1254;49.144;8.212;2023-05-02T14:34:49;11.00;;;10.40;;
2486;SDS011;1254;49.144;8.212;2023-05-02T14:37:17;11.30;;;10.70;;
2486;SDS011;1254;49.144;8.212;2023-05-02T14:39:46;10.60;;;10.20;;
2486;SDS011;1254;49.144;8.212;2023-05-02T14:42:18;11.47;;;11.07;;
2486;SDS011;1254;49.144;8.212;2023-05-02T14:44:47;13.97;;;12.80;;
2486;SDS011;1254;49.144;8.212;2023-05-02T14:47:15;11.80;;;10.90;;
2486;SDS011;1254;49.144;8.212;2023-05-02T14:49:43;11.60;;;11.10;;
2486;SDS011;1254;49.144;8.212;2023-05-02T14:52:11;12.70;;;12.00;;
2486;SDS011;1254;49.144;8.212;2023-05-02T14:54:40;11.37;;;10.87;;
2486;SDS011;1254;49.144;8.212;2023-05-02T14:57:08;10.93;;;10.43;;
2486;SDS011;1254;49.144;8.212;2023-05-02T14:59:37;10.60;;;10.20;;
2486;SDS011;1254;49.144;8.212;2023-05-02T15:02:06;12.53;;;11.83;;
2486;SDS011;1254;49.144;8.212;2023-05-02T15:04:34;12.30;;;11.70;;
2486;SDS011;1254;49.144;8.212;2023-05-02T15:07:02;11.50;;;10.90;;
2486;SDS011;1254;49.144;8.212;2023-05-02T15:09:31;12.10;;;11.40;;
2486;SDS011;1254;49.144;8.212;2023-05-02T15:12:00;11.90;;;11.17;;
2486;SDS011;1254;49.144;8.212;2023-05-02T15:14:28;11.53;;;11.03;;
2486;SDS011;1254;49.144;8.212;2023-05-02T15:16:58;11.67;;;11.10;;
2486;SDS011;1254;49.144;8.212;2023-05-02T15:19:26;11.93;;;11.43;;
2486;SDS011;1254;49.144;8.212;2023-05-02T15:21:54;11.27;;;10.80;;
2486;SDS011;1254;49.144;8.212;2023-05-02T15:24:23;11.83;;;11.23;;